createdAt,value
2019-03-17T00:00:22.163Z,14.90
2019-03-17T00:01:27.699Z,15.00
2019-03-17T00:02:31.266Z,15.67
2019-03-17T00:03:34.829Z,20.67
2019-03-17T00:04:38.455Z,20.60
2019-03-17T00:05:42.082Z,15.00
2019-03-17T00:06:45.663Z,15.37
2019-03-17T00:07:49.293Z,16.10
2019-03-17T00:08:52.926Z,15.87
2019-03-17T00:09:56.563Z,17.97
2019-03-17T00:11:00.199Z,17.33
2019-03-17T00:12:03.861Z,13.93
2019-03-17T00:13:07.865Z,18.50
2019-03-17T00:14:11.500Z,16.73
2019-03-17T00:15:15.143Z,20.60
2019-03-17T00:16:18.763Z,19.23
2019-03-17T00:17:25.054Z,17.07
2019-03-17T00:18:27.787Z,17.80
2019-03-17T00:19:31.424Z,19.50
2019-03-17T00:20:35.428Z,19.43
2019-03-17T00:21:39.070Z,17.67
2019-03-17T00:22:42.666Z,19.80
2019-03-17T00:23:46.319Z,17.90
2019-03-17T00:24:50.033Z,17.47
2019-03-17T00:25:53.672Z,17.43
2019-03-17T00:26:57.350Z,17.87
2019-03-17T00:28:01.028Z,19.00
2019-03-17T00:29:04.665Z,17.00
2019-03-17T00:30:11.281Z,18.97
2019-03-17T00:31:23.663Z,17.30
2019-03-17T00:32:20.278Z,18.37
2019-03-17T00:33:23.954Z,17.40
2019-03-17T00:34:27.670Z,14.63
2019-03-17T00:35:31.306Z,16.03
2019-03-17T00:36:34.939Z,16.90
2019-03-17T00:37:38.552Z,17.73
2019-03-17T00:38:42.644Z,15.27
2019-03-17T00:39:48.781Z,13.53
2019-03-17T00:40:51.630Z,17.27
2019-03-17T00:41:55.264Z,13.90
2019-03-17T00:42:58.886Z,14.03
2019-03-17T00:44:02.549Z,13.30
2019-03-17T00:45:11.778Z,14.90
2019-03-17T00:46:15.699Z,12.97
2019-03-17T00:47:19.308Z,17.67
2019-03-17T00:48:22.871Z,16.13
2019-03-17T00:49:26.590Z,16.00
2019-03-17T00:50:30.218Z,16.93
2019-03-17T00:51:33.843Z,15.60
2019-03-17T00:52:37.479Z,16.40
2019-03-17T00:53:41.153Z,14.67
2019-03-17T00:54:44.817Z,19.33
2019-03-17T00:55:48.502Z,17.80
2019-03-17T00:56:52.078Z,17.07
2019-03-17T00:57:55.707Z,20.87
2019-03-17T00:58:59.262Z,15.93
2019-03-17T01:00:03.029Z,15.97
2019-03-17T01:01:06.664Z,15.47
2019-03-17T01:02:10.284Z,15.50
2019-03-17T01:03:14.540Z,14.57
2019-03-17T01:04:18.256Z,18.10
2019-03-17T01:05:21.928Z,16.63
2019-03-17T01:06:25.574Z,19.23
2019-03-17T01:07:29.217Z,17.13
2019-03-17T01:08:32.854Z,18.67
2019-03-17T01:09:36.890Z,20.47
2019-03-17T01:10:40.577Z,20.37
2019-03-17T01:11:44.208Z,15.17
2019-03-17T01:12:47.833Z,16.37
2019-03-17T01:13:51.478Z,15.87
2019-03-17T01:14:55.043Z,18.73
2019-03-17T01:15:58.711Z,21.73
2019-03-17T01:17:02.349Z,16.80
2019-03-17T01:18:06.323Z,16.90
2019-03-17T01:19:09.958Z,16.17
2019-03-17T01:20:13.595Z,18.07
2019-03-17T01:21:17.257Z,18.10
2019-03-17T01:22:20.863Z,20.33
2019-03-17T01:23:24.500Z,17.00
2019-03-17T01:24:28.062Z,17.80
2019-03-17T01:25:31.643Z,14.37
2019-03-17T01:26:35.338Z,16.93
2019-03-17T01:27:38.963Z,14.33
2019-03-17T01:28:42.588Z,13.30
2019-03-17T01:29:46.147Z,16.23
2019-03-17T01:30:49.800Z,14.93
2019-03-17T01:31:53.473Z,17.90
2019-03-17T01:32:57.454Z,19.37
2019-03-17T01:34:01.019Z,25.63
2019-03-17T01:35:09.423Z,17.43
2019-03-17T01:36:12.290Z,16.40
2019-03-17T01:37:16.051Z,16.13
2019-03-17T01:38:19.678Z,15.90
2019-03-17T01:39:23.317Z,17.43
2019-03-17T01:40:26.879Z,14.90
2019-03-17T01:41:30.535Z,15.97
2019-03-17T01:42:36.348Z,18.10
2019-03-17T01:43:40.055Z,16.83
2019-03-17T01:44:43.706Z,17.33
2019-03-17T01:45:47.344Z,14.80
2019-03-17T01:46:51.018Z,16.77
2019-03-17T01:47:54.637Z,13.80
2019-03-17T01:48:58.274Z,12.80
2019-03-17T01:50:02.015Z,13.47
2019-03-17T01:51:05.648Z,11.37
2019-03-17T01:52:09.276Z,13.33
2019-03-17T01:53:12.948Z,10.70
2019-03-17T01:54:16.575Z,13.53
2019-03-17T01:55:20.215Z,11.07
2019-03-17T01:56:24.015Z,10.47
2019-03-17T01:57:28.566Z,14.00
2019-03-17T01:58:32.218Z,15.23
2019-03-17T01:59:35.851Z,13.20
2019-03-17T02:00:39.747Z,14.17
2019-03-17T02:01:43.381Z,16.27
2019-03-17T02:02:47.018Z,11.17
2019-03-17T02:03:50.672Z,14.27
2019-03-17T02:04:54.678Z,14.23
2019-03-17T02:05:58.307Z,12.20
2019-03-17T02:07:01.936Z,15.97
2019-03-17T02:08:05.980Z,11.37
2019-03-17T02:09:10.018Z,7.63
2019-03-17T02:10:13.724Z,11.33
2019-03-17T02:11:17.368Z,10.10
2019-03-17T02:12:20.998Z,11.83
2019-03-17T02:13:24.617Z,8.57
2019-03-17T02:14:28.655Z,12.30
2019-03-17T02:15:32.295Z,11.00
2019-03-17T02:16:35.933Z,11.17
2019-03-17T02:17:39.542Z,7.53
2019-03-17T02:18:43.098Z,10.23
2019-03-17T02:19:46.689Z,10.37
2019-03-17T02:20:50.314Z,8.90
2019-03-17T02:21:54.017Z,10.87
2019-03-17T02:22:57.644Z,12.53
2019-03-17T02:24:01.204Z,16.10
2019-03-17T02:25:05.865Z,14.00
2019-03-17T02:26:09.494Z,14.83
2019-03-17T02:27:13.130Z,14.20
2019-03-17T02:28:16.685Z,15.67
2019-03-17T02:29:20.309Z,15.07
2019-03-17T02:30:24.004Z,13.83
2019-03-17T02:31:27.549Z,17.57
2019-03-17T02:32:31.189Z,17.67
2019-03-17T02:33:34.757Z,14.13
2019-03-17T02:34:38.400Z,15.70
2019-03-17T02:35:42.034Z,14.83
2019-03-17T02:36:45.599Z,15.07
2019-03-17T02:37:49.224Z,14.87
2019-03-17T02:38:52.792Z,14.93
2019-03-17T02:39:56.461Z,11.63
2019-03-17T02:41:00.092Z,13.70
2019-03-17T02:42:03.710Z,19.53
2019-03-17T02:43:07.341Z,16.83
2019-03-17T02:44:11.304Z,14.87
2019-03-17T02:45:14.964Z,17.70
2019-03-17T02:46:18.590Z,17.30
2019-03-17T02:47:22.148Z,14.90
2019-03-17T02:48:25.776Z,16.53
2019-03-17T02:49:29.812Z,15.73
2019-03-17T02:50:33.411Z,16.23
2019-03-17T02:51:37.035Z,17.73
2019-03-17T02:52:40.680Z,14.80
2019-03-17T02:53:44.306Z,13.83
2019-03-17T02:54:47.941Z,13.43
2019-03-17T02:55:51.602Z,13.73
2019-03-17T02:56:55.229Z,14.13
2019-03-17T02:57:58.870Z,16.23
2019-03-17T02:59:02.437Z,13.53
2019-03-17T03:00:09.098Z,18.77
2019-03-17T03:01:12.753Z,14.23
2019-03-17T03:02:16.393Z,17.13
2019-03-17T03:03:20.034Z,14.33
2019-03-17T03:04:23.653Z,15.63
2019-03-17T03:05:27.275Z,15.70
2019-03-17T03:06:30.949Z,13.87
2019-03-17T03:07:34.684Z,13.40
2019-03-17T03:08:38.319Z,13.53
2019-03-17T03:09:41.943Z,13.87
2019-03-17T03:10:45.583Z,15.93
2019-03-17T03:11:49.136Z,16.63
2019-03-17T03:12:52.763Z,18.40
2019-03-17T03:13:56.659Z,17.03
2019-03-17T03:15:00.580Z,16.83
2019-03-17T03:16:06.021Z,16.10
2019-03-17T03:17:09.497Z,16.60
2019-03-17T03:18:13.050Z,13.90
2019-03-17T03:19:16.741Z,14.70
2019-03-17T03:20:20.361Z,13.40
2019-03-17T03:21:23.992Z,18.33
2019-03-17T03:22:27.626Z,17.77
2019-03-17T03:23:31.268Z,18.77
2019-03-17T03:24:34.913Z,16.93
2019-03-17T03:25:38.565Z,19.53
2019-03-17T03:26:42.199Z,20.67
2019-03-17T03:27:45.816Z,18.37
2019-03-17T03:28:49.707Z,17.13
2019-03-17T03:29:53.308Z,18.23
2019-03-17T03:30:57.098Z,17.30
2019-03-17T03:32:00.763Z,19.23
2019-03-17T03:33:04.399Z,20.03
2019-03-17T03:34:08.377Z,23.10
2019-03-17T03:35:12.278Z,26.60
2019-03-17T03:36:16.055Z,25.70
2019-03-17T03:37:19.612Z,26.50
2019-03-17T03:38:23.253Z,29.00
2019-03-17T03:39:26.883Z,28.03
2019-03-17T03:40:30.552Z,32.70
2019-03-17T03:41:34.802Z,34.10
2019-03-17T03:42:38.442Z,33.07
2019-03-17T03:43:42.114Z,29.50
2019-03-17T03:44:45.817Z,27.10
2019-03-17T03:45:49.452Z,29.60
2019-03-17T03:46:53.098Z,25.30
2019-03-17T03:47:56.727Z,18.37
2019-03-17T03:49:00.355Z,16.40
2019-03-17T03:50:05.396Z,17.63
2019-03-17T03:51:09.025Z,18.57
2019-03-17T03:52:12.697Z,18.53
2019-03-17T03:53:16.299Z,14.47
2019-03-17T03:54:22.043Z,13.67
2019-03-17T03:55:25.670Z,13.00
2019-03-17T03:56:29.357Z,12.93
2019-03-17T03:57:32.963Z,17.57
2019-03-17T03:58:36.595Z,9.93
2019-03-17T03:59:40.622Z,11.93
2019-03-17T04:00:44.594Z,11.17
2019-03-17T04:01:48.250Z,14.40
2019-03-17T04:02:51.879Z,14.33
2019-03-17T04:03:55.532Z,14.07
2019-03-17T04:04:59.144Z,13.23
2019-03-17T04:06:02.806Z,14.35
2019-03-17T04:07:06.894Z,16.45
2019-03-17T04:08:10.542Z,13.58
2019-03-17T04:09:14.144Z,15.28
2019-03-17T04:10:17.764Z,12.30
2019-03-17T04:11:21.313Z,14.03
2019-03-17T04:12:25.039Z,11.93
2019-03-17T04:13:28.677Z,12.63
2019-03-17T04:14:32.312Z,17.87
2019-03-17T04:15:36.393Z,18.20
2019-03-17T04:16:40.047Z,16.65
2019-03-17T04:17:43.714Z,13.57
2019-03-17T04:18:47.347Z,17.55
2019-03-17T04:19:50.902Z,16.67
2019-03-17T04:20:54.965Z,18.42
2019-03-17T04:22:00.687Z,18.95
2019-03-17T04:23:04.379Z,19.48
2019-03-17T04:24:08.040Z,16.17
2019-03-17T04:25:13.416Z,18.63
2019-03-17T04:26:17.144Z,17.70
2019-03-17T04:27:20.768Z,20.23
2019-03-17T04:28:24.450Z,20.62
2019-03-17T04:29:28.082Z,18.90
2019-03-17T04:30:31.715Z,22.07
2019-03-17T04:31:35.457Z,23.85
2019-03-17T04:32:39.113Z,18.85
2019-03-17T04:33:42.782Z,21.00
2019-03-17T04:34:46.410Z,22.17
2019-03-17T04:35:50.036Z,16.67
2019-03-17T04:36:53.674Z,15.60
2019-03-17T04:37:57.316Z,17.52
2019-03-17T04:39:00.910Z,17.82
2019-03-17T04:40:06.160Z,16.35
2019-03-17T04:41:09.719Z,18.63
2019-03-17T04:42:13.349Z,17.20
2019-03-17T04:43:16.984Z,15.37
2019-03-17T04:44:21.343Z,15.53
2019-03-17T04:45:24.984Z,16.77
2019-03-17T04:46:28.688Z,16.50
2019-03-17T04:47:32.250Z,15.50
2019-03-17T04:48:36.214Z,16.90
2019-03-17T04:49:39.878Z,16.20
2019-03-17T04:50:43.523Z,19.55
2019-03-17T04:51:47.153Z,19.47
2019-03-17T04:52:50.800Z,17.50
2019-03-17T04:53:54.672Z,13.83
2019-03-17T04:54:58.449Z,13.70
2019-03-17T04:56:02.478Z,16.23
2019-03-17T04:57:06.997Z,17.52
2019-03-17T04:58:10.631Z,16.67
2019-03-17T04:59:14.140Z,14.10
2019-03-17T05:00:17.823Z,17.75
2019-03-17T05:01:21.456Z,14.37
2019-03-17T05:02:25.450Z,20.30
2019-03-17T05:03:29.024Z,20.75
2019-03-17T05:04:32.583Z,18.57
2019-03-17T05:05:36.293Z,17.43
2019-03-17T05:06:51.572Z,22.47
2019-03-17T05:07:45.234Z,18.92
2019-03-17T05:08:48.897Z,23.83
2019-03-17T05:09:55.275Z,18.70
2019-03-17T05:10:58.970Z,20.33
2019-03-17T05:12:02.621Z,16.93
2019-03-17T05:13:11.360Z,18.60
2019-03-17T05:14:14.993Z,19.43
2019-03-17T05:15:18.652Z,20.80
2019-03-17T05:16:22.309Z,17.67
2019-03-17T05:17:25.952Z,18.85
2019-03-17T05:18:29.616Z,15.98
2019-03-17T05:19:33.200Z,20.97
2019-03-17T05:20:36.780Z,17.02
2019-03-17T05:21:40.522Z,18.12
2019-03-17T05:22:44.103Z,19.37
2019-03-17T05:23:47.748Z,20.70
2019-03-17T05:24:51.251Z,20.40
2019-03-17T05:25:54.892Z,18.97
2019-03-17T05:26:58.549Z,23.15
2019-03-17T05:28:02.133Z,19.20
2019-03-17T05:29:05.765Z,17.63
2019-03-17T05:30:11.818Z,24.67
2019-03-17T05:31:15.395Z,17.45
2019-03-17T05:32:19.084Z,20.75
2019-03-17T05:33:22.734Z,19.27
2019-03-17T05:34:26.384Z,17.82
2019-03-17T05:35:30.064Z,23.03
2019-03-17T05:36:33.856Z,19.90
2019-03-17T05:37:41.302Z,21.82
2019-03-17T05:38:48.016Z,18.90
2019-03-17T05:39:51.648Z,20.97
2019-03-17T05:40:55.376Z,21.48
2019-03-17T05:41:58.931Z,19.97
2019-03-17T05:43:02.572Z,27.25
2019-03-17T05:44:06.588Z,27.97
2019-03-17T05:45:10.335Z,22.20
2019-03-17T05:46:13.972Z,25.37
2019-03-17T05:47:17.603Z,28.20
2019-03-17T05:48:21.237Z,25.40
2019-03-17T05:49:24.874Z,24.27
2019-03-17T05:50:30.557Z,23.15
2019-03-17T05:51:34.207Z,24.32
2019-03-17T05:52:37.847Z,19.65
2019-03-17T05:53:41.486Z,21.10
2019-03-17T05:54:45.125Z,20.27
2019-03-17T05:55:48.792Z,21.07
2019-03-17T05:56:52.369Z,23.45
2019-03-17T05:57:56.016Z,21.60
2019-03-17T05:58:59.736Z,28.35
2019-03-17T06:00:04.559Z,31.02
2019-03-17T06:01:08.243Z,36.45
2019-03-17T06:02:11.942Z,30.95
2019-03-17T06:03:15.678Z,33.92
2019-03-17T06:04:19.732Z,31.93
2019-03-17T06:05:23.379Z,29.10
2019-03-17T06:06:27.059Z,28.23
2019-03-17T06:07:30.716Z,25.32
2019-03-17T06:08:34.288Z,26.87
2019-03-17T06:09:37.963Z,26.95
2019-03-17T06:10:42.515Z,29.18
2019-03-17T06:11:46.341Z,29.07
2019-03-17T06:12:50.494Z,25.25
2019-03-17T06:13:54.135Z,33.67
2019-03-17T06:14:57.769Z,28.98
2019-03-17T06:16:01.428Z,32.38
2019-03-17T06:17:05.188Z,25.68
2019-03-17T06:18:09.173Z,26.47
2019-03-17T06:19:13.702Z,24.33
2019-03-17T06:20:17.418Z,25.70
2019-03-17T06:21:21.046Z,22.73
2019-03-17T06:22:24.704Z,24.83
2019-03-17T06:23:28.357Z,23.75
2019-03-17T06:24:31.997Z,25.08
2019-03-17T06:25:35.712Z,30.97
2019-03-17T06:26:39.354Z,24.02
2019-03-17T06:27:43.029Z,24.20
2019-03-17T06:28:46.673Z,27.58
2019-03-17T06:29:50.300Z,26.97
2019-03-17T06:30:53.935Z,23.77
2019-03-17T06:31:59.925Z,25.75
2019-03-17T06:33:03.560Z,25.47
2019-03-17T06:34:07.203Z,23.77
2019-03-17T06:35:10.860Z,20.60
2019-03-17T06:36:14.574Z,21.43
2019-03-17T06:37:30.221Z,21.17
2019-03-17T06:38:23.972Z,24.33
2019-03-17T06:39:27.582Z,21.90
2019-03-17T06:40:31.266Z,23.80
2019-03-17T06:41:36.344Z,18.70
2019-03-17T06:42:40.358Z,23.90
2019-03-17T06:43:43.993Z,16.87
2019-03-17T06:44:47.626Z,20.73
2019-03-17T06:45:51.641Z,18.67
2019-03-17T06:46:55.211Z,20.33
2019-03-17T06:47:58.853Z,25.17
2019-03-17T06:49:02.518Z,27.47
2019-03-17T06:50:09.064Z,22.60
2019-03-17T06:51:12.701Z,25.20
2019-03-17T06:52:16.342Z,24.20
2019-03-17T06:53:19.989Z,19.57
2019-03-17T06:54:23.652Z,22.57
2019-03-17T06:55:27.419Z,20.50
2019-03-17T06:56:32.989Z,22.17
2019-03-17T06:57:40.967Z,22.10
2019-03-17T06:58:44.655Z,26.97
2019-03-17T06:59:48.517Z,28.97
2019-03-17T07:00:52.334Z,29.37
2019-03-17T07:01:57.098Z,25.40
2019-03-17T07:03:00.929Z,20.83
2019-03-17T07:04:04.533Z,22.93
2019-03-17T07:05:09.252Z,22.87
2019-03-17T07:06:12.876Z,21.27
2019-03-17T07:07:16.520Z,17.83
2019-03-17T07:08:20.175Z,20.97
2019-03-17T07:09:23.745Z,18.57
2019-03-17T07:10:27.424Z,17.47
2019-03-17T07:11:30.993Z,18.20
2019-03-17T07:12:34.634Z,19.53
2019-03-17T07:13:38.271Z,18.83
2019-03-17T07:14:41.953Z,18.83
2019-03-17T07:15:45.616Z,20.50
2019-03-17T07:16:49.255Z,21.43
2019-03-17T07:17:52.896Z,21.70
2019-03-17T07:18:56.531Z,19.03
2019-03-17T07:20:00.877Z,18.70
2019-03-17T07:21:04.702Z,17.53
2019-03-17T07:22:08.450Z,18.87
2019-03-17T07:23:13.136Z,20.07
2019-03-17T07:24:17.079Z,22.13
2019-03-17T07:25:20.881Z,18.13
2019-03-17T07:26:26.110Z,21.43
2019-03-17T07:27:29.679Z,21.63
2019-03-17T07:28:33.317Z,26.10
2019-03-17T07:29:37.049Z,22.67
2019-03-17T07:30:40.880Z,24.37
2019-03-17T07:31:44.639Z,23.43
2019-03-17T07:32:48.425Z,27.60
2019-03-17T07:33:52.062Z,22.27
2019-03-17T07:34:55.697Z,20.07
2019-03-17T07:35:59.416Z,25.93
2019-03-17T07:37:03.213Z,19.33
2019-03-17T07:38:06.868Z,17.43
2019-03-17T07:39:12.162Z,20.77
2019-03-17T07:40:19.469Z,16.20
2019-03-17T07:41:23.215Z,19.40
2019-03-17T07:42:27.180Z,18.77
2019-03-17T07:43:30.843Z,15.03
2019-03-17T07:44:34.490Z,16.57
2019-03-17T07:45:39.717Z,17.40
2019-03-17T07:46:43.430Z,15.30
2019-03-17T07:47:47.249Z,15.40
2019-03-17T07:48:51.333Z,15.50
2019-03-17T07:49:54.987Z,15.03
2019-03-17T07:50:58.654Z,14.87
2019-03-17T07:52:02.300Z,14.97
2019-03-17T07:53:06.714Z,15.20
2019-03-17T07:54:10.824Z,17.33
2019-03-17T07:55:14.611Z,13.97
2019-03-17T07:56:18.434Z,16.23
2019-03-17T07:57:22.198Z,13.93
2019-03-17T07:58:26.207Z,15.23
2019-03-17T07:59:30.345Z,13.50
2019-03-17T08:00:34.155Z,16.43
2019-03-17T08:01:38.078Z,12.87
2019-03-17T08:02:41.966Z,12.87
2019-03-17T08:03:45.982Z,14.83
2019-03-17T08:04:51.148Z,13.53
2019-03-17T08:05:56.594Z,12.67
2019-03-17T08:07:00.264Z,12.70
2019-03-17T08:08:10.005Z,9.83
2019-03-17T08:09:14.637Z,11.63
2019-03-17T08:10:19.642Z,12.80
2019-03-17T08:11:29.015Z,9.77
2019-03-17T08:12:32.692Z,13.87
2019-03-17T08:13:36.402Z,13.17
2019-03-17T08:14:40.043Z,19.03
2019-03-17T08:15:43.671Z,17.87
2019-03-17T08:16:47.311Z,17.17
2019-03-17T08:17:50.990Z,18.40
2019-03-17T08:18:54.617Z,16.60
2019-03-17T08:19:58.261Z,15.80
2019-03-17T08:21:01.894Z,13.20
2019-03-17T08:22:06.019Z,12.10
2019-03-17T08:23:09.686Z,10.50
2019-03-17T08:24:13.414Z,12.60
2019-03-17T08:25:29.399Z,8.17
2019-03-17T08:26:33.167Z,11.63
2019-03-17T08:27:36.810Z,16.90
2019-03-17T08:28:40.484Z,40.87
2019-03-17T08:29:44.239Z,34.27
2019-03-17T08:30:53.182Z,17.60
2019-03-17T08:31:53.433Z,14.87
2019-03-17T08:32:57.130Z,15.87
2019-03-17T08:34:00.804Z,11.20
2019-03-17T08:35:06.046Z,12.80
2019-03-17T08:36:09.773Z,12.73
2019-03-17T08:37:22.640Z,21.23
2019-03-17T08:38:26.607Z,13.83
2019-03-17T08:39:30.385Z,11.00
2019-03-17T08:40:34.134Z,12.93
2019-03-17T08:41:37.892Z,13.50
2019-03-17T08:42:42.300Z,12.20
2019-03-17T08:43:54.141Z,10.10
2019-03-17T08:44:53.063Z,13.33
2019-03-17T08:45:56.598Z,9.93
2019-03-17T08:47:00.228Z,10.70
2019-03-17T08:48:03.867Z,9.47
2019-03-17T08:49:07.456Z,10.60
2019-03-17T08:50:13.376Z,11.40
2019-03-17T08:51:17.055Z,13.73
2019-03-17T08:52:22.215Z,15.30
2019-03-17T08:53:25.846Z,12.00
2019-03-17T08:54:32.816Z,16.00
2019-03-17T08:55:36.461Z,13.27
2019-03-17T08:56:40.177Z,16.87
2019-03-17T08:57:43.834Z,16.93
2019-03-17T08:58:51.403Z,14.57
2019-03-17T08:59:58.932Z,11.13
2019-03-17T09:01:02.702Z,11.30
2019-03-17T09:02:06.332Z,8.97
2019-03-17T09:03:10.390Z,13.60
2019-03-17T09:04:14.021Z,12.13
2019-03-17T09:05:18.008Z,10.83
2019-03-17T09:06:21.858Z,8.20
2019-03-17T09:07:27.750Z,8.30
2019-03-17T09:08:35.243Z,10.23
2019-03-17T09:09:36.429Z,12.87
2019-03-17T09:10:40.068Z,12.10
2019-03-17T09:11:43.761Z,11.03
2019-03-17T09:12:50.410Z,10.53
2019-03-17T09:13:54.589Z,9.13
2019-03-17T09:14:58.166Z,10.73
2019-03-17T09:16:01.849Z,7.53
2019-03-17T09:17:14.703Z,8.48
2019-03-17T09:18:19.741Z,8.35
2019-03-17T09:19:26.638Z,8.93
2019-03-17T09:20:33.359Z,11.78
2019-03-17T09:21:38.673Z,8.90
2019-03-17T09:22:42.212Z,8.75
2019-03-17T09:23:47.422Z,9.73
2019-03-17T09:24:51.168Z,10.82
2019-03-17T09:25:54.796Z,7.65
2019-03-17T09:26:58.447Z,8.15
2019-03-17T09:28:03.831Z,9.15
2019-03-17T09:29:07.638Z,8.35
2019-03-17T09:30:14.078Z,6.85
2019-03-17T09:31:17.641Z,8.63
2019-03-17T09:32:21.232Z,7.47
2019-03-17T09:33:24.867Z,6.03
2019-03-17T09:34:28.695Z,6.40
2019-03-17T09:35:32.388Z,7.62
2019-03-17T09:36:35.988Z,8.48
2019-03-17T09:37:39.624Z,7.37
2019-03-17T09:38:47.497Z,8.78
2019-03-17T09:39:48.766Z,6.33
2019-03-17T09:40:52.856Z,7.17
2019-03-17T09:41:56.591Z,7.15
2019-03-17T09:43:00.391Z,7.10
2019-03-17T09:44:04.546Z,6.03
2019-03-17T09:45:10.664Z,8.35
2019-03-17T09:46:14.775Z,5.28
2019-03-17T09:47:19.461Z,4.92
2019-03-17T09:48:23.040Z,6.10
2019-03-17T09:49:26.676Z,4.62
2019-03-17T09:50:32.129Z,5.15
2019-03-17T09:51:35.803Z,4.85
2019-03-17T09:52:42.384Z,4.25
2019-03-17T09:53:45.888Z,6.08
2019-03-17T09:54:49.845Z,4.90
2019-03-17T09:55:53.480Z,7.20
2019-03-17T09:56:57.085Z,6.42
2019-03-17T09:58:00.660Z,4.62
2019-03-17T09:59:04.289Z,4.42
2019-03-17T10:00:21.228Z,3.62
2019-03-17T10:01:24.867Z,4.60
2019-03-17T10:02:28.530Z,4.65
2019-03-17T10:03:32.170Z,6.20
2019-03-17T10:04:35.721Z,4.60
2019-03-17T10:05:39.352Z,3.55
2019-03-17T10:06:42.985Z,7.45
2019-03-17T10:07:46.944Z,5.60
2019-03-17T10:08:59.487Z,5.67
2019-03-17T10:09:55.785Z,5.90
2019-03-17T10:10:59.485Z,6.40
2019-03-17T10:12:03.122Z,4.40
2019-03-17T10:13:07.178Z,4.67
2019-03-17T10:14:10.772Z,4.53
2019-03-17T10:15:15.626Z,3.98
2019-03-17T10:16:19.256Z,3.37
2019-03-17T10:17:24.701Z,3.77
2019-03-17T10:18:28.748Z,6.50
2019-03-17T10:19:32.375Z,3.52
2019-03-17T10:20:36.411Z,3.95
2019-03-17T10:21:44.159Z,4.47
2019-03-17T10:22:47.807Z,3.40
2019-03-17T10:23:51.441Z,2.52
2019-03-17T10:24:55.090Z,3.08
2019-03-17T10:25:59.350Z,3.95
2019-03-17T10:27:03.062Z,2.45
2019-03-17T10:28:06.706Z,1.50
2019-03-17T10:29:10.270Z,2.12
2019-03-17T10:30:18.394Z,3.25
2019-03-17T10:31:22.039Z,3.00
2019-03-17T10:32:25.680Z,4.17
2019-03-17T10:33:29.299Z,5.70
2019-03-17T10:34:32.941Z,3.10
2019-03-17T10:35:36.574Z,2.83
2019-03-17T10:36:42.355Z,4.03
2019-03-17T10:37:45.923Z,2.62
2019-03-17T10:38:49.568Z,4.67
2019-03-17T10:39:53.319Z,3.30
2019-03-17T10:40:56.928Z,2.37
2019-03-17T10:42:03.134Z,3.37
2019-03-17T10:43:06.787Z,6.42
2019-03-17T10:44:10.471Z,3.02
2019-03-17T10:45:14.429Z,2.67
2019-03-17T10:46:18.026Z,3.70
2019-03-17T10:47:21.670Z,2.22
2019-03-17T10:48:25.307Z,3.37
2019-03-17T10:49:28.967Z,2.47
2019-03-17T10:50:32.604Z,3.20
2019-03-17T10:51:36.250Z,3.08
2019-03-17T10:52:39.887Z,2.75
2019-03-17T10:53:43.519Z,2.90
2019-03-17T10:54:47.185Z,3.25
2019-03-17T10:55:50.920Z,1.82
2019-03-17T10:56:54.560Z,2.80
2019-03-17T10:57:58.194Z,3.33
2019-03-17T10:59:02.007Z,4.78
2019-03-17T11:00:08.588Z,3.90
2019-03-17T11:01:12.233Z,3.67
2019-03-17T11:02:15.953Z,4.92
2019-03-17T11:03:19.608Z,2.65
2019-03-17T11:04:39.540Z,2.22
2019-03-17T11:07:43.181Z,2.90
2019-03-17T11:13:53.695Z,3.00
2019-03-17T11:14:57.326Z,3.17
2019-03-17T11:16:00.968Z,4.35
2019-03-17T11:17:04.769Z,3.47
2019-03-17T11:18:08.477Z,2.00
2019-03-17T11:19:12.023Z,3.33
2019-03-17T11:20:16.062Z,2.75
2019-03-17T11:21:19.725Z,2.80
2019-03-17T11:22:25.417Z,4.00
2019-03-17T11:23:28.848Z,3.27
2019-03-17T11:24:32.466Z,3.35
2019-03-17T11:25:36.107Z,4.53
2019-03-17T11:26:39.742Z,3.52
2019-03-17T11:27:43.378Z,3.02
2019-03-17T11:28:47.044Z,2.35
2019-03-17T11:29:50.683Z,3.70
2019-03-17T11:30:58.576Z,4.92
2019-03-17T11:32:02.345Z,2.60
2019-03-17T11:33:05.951Z,3.45
2019-03-17T11:34:09.688Z,1.90
2019-03-17T11:35:13.324Z,3.52
2019-03-17T11:36:18.950Z,3.83
2019-03-17T11:37:23.625Z,3.45
2019-03-17T11:38:27.549Z,2.85
2019-03-17T11:39:37.857Z,2.98
2019-03-17T11:40:36.546Z,2.62
2019-03-17T11:41:40.193Z,3.33
2019-03-17T11:42:43.812Z,3.45
2019-03-17T11:43:47.461Z,3.47
2019-03-17T11:44:51.246Z,4.60
2019-03-17T11:45:54.850Z,3.30
2019-03-17T11:46:58.560Z,5.30
2019-03-17T11:48:02.195Z,2.58
2019-03-17T11:49:05.852Z,3.30
2019-03-17T11:50:14.637Z,2.95
2019-03-17T11:51:18.267Z,2.70
2019-03-17T11:52:21.958Z,1.72
2019-03-17T11:53:25.680Z,2.77
2019-03-17T11:54:29.312Z,1.90
2019-03-17T11:55:35.017Z,2.17
2019-03-17T11:56:38.712Z,2.95
2019-03-17T11:57:42.958Z,3.10
2019-03-17T11:58:46.650Z,2.67
2019-03-17T11:59:50.303Z,2.22
2019-03-17T12:00:53.981Z,2.75
2019-03-17T12:01:57.991Z,2.35
2019-03-17T12:03:02.059Z,3.33
2019-03-17T12:04:05.693Z,2.67
2019-03-17T12:05:09.712Z,7.60
2019-03-17T12:06:13.417Z,12.40
2019-03-17T12:07:17.068Z,6.33
2019-03-17T12:08:21.169Z,2.25
2019-03-17T12:09:29.388Z,3.67
2019-03-17T12:10:30.250Z,3.92
2019-03-17T12:11:33.941Z,2.77
2019-03-17T12:12:37.890Z,2.98
2019-03-17T12:13:41.635Z,3.45
2019-03-17T12:14:45.232Z,3.75
2019-03-17T12:15:48.871Z,3.95
2019-03-17T12:16:52.523Z,3.45
2019-03-17T12:17:56.165Z,4.72
2019-03-17T12:19:00.183Z,4.67
2019-03-17T12:20:05.271Z,3.92
2019-03-17T12:21:08.980Z,3.12
2019-03-17T12:22:12.962Z,2.02
2019-03-17T12:23:16.649Z,2.15
2019-03-17T12:24:21.243Z,2.30
2019-03-17T12:25:24.873Z,3.33
2019-03-17T12:26:28.522Z,2.75
2019-03-17T12:27:32.267Z,3.72
2019-03-17T12:28:35.898Z,3.45
2019-03-17T12:29:39.550Z,2.52
2019-03-17T12:30:43.236Z,1.87
2019-03-17T12:31:46.879Z,2.65
2019-03-17T12:32:51.549Z,1.47
2019-03-17T12:33:56.750Z,1.70
2019-03-17T12:35:00.436Z,2.30
2019-03-17T12:36:05.473Z,3.08
2019-03-17T12:37:09.484Z,2.00
2019-03-17T12:38:13.131Z,2.15
2019-03-17T12:39:16.766Z,2.87
2019-03-17T12:40:20.400Z,3.52
2019-03-17T12:41:24.043Z,3.20
2019-03-17T12:42:27.739Z,2.08
2019-03-17T12:43:31.783Z,1.90
2019-03-17T12:44:50.144Z,2.17
2019-03-17T12:45:56.889Z,5.50
2019-03-17T12:47:00.915Z,4.60
2019-03-17T12:48:04.957Z,2.77
2019-03-17T12:49:12.608Z,4.58
2019-03-17T12:50:20.932Z,1.95
2019-03-17T12:51:24.567Z,2.30
2019-03-17T12:52:28.211Z,2.70
2019-03-17T12:53:32.215Z,3.05
2019-03-17T12:54:35.874Z,2.87
2019-03-17T12:55:39.590Z,2.47
2019-03-17T12:56:43.226Z,6.15
2019-03-17T12:57:46.864Z,3.98
2019-03-17T12:58:52.098Z,2.62
2019-03-17T12:59:55.827Z,2.25
2019-03-17T13:00:59.462Z,1.95
2019-03-17T13:02:03.104Z,1.67
2019-03-17T13:03:06.735Z,2.60
2019-03-17T13:04:10.374Z,3.50
2019-03-17T13:05:14.322Z,3.17
2019-03-17T13:06:17.975Z,2.22
2019-03-17T13:07:21.617Z,2.42
2019-03-17T13:08:25.243Z,2.75
2019-03-17T13:09:28.886Z,3.67
2019-03-17T13:10:32.852Z,3.50
2019-03-17T13:11:36.445Z,2.80
2019-03-17T13:12:40.075Z,2.58
2019-03-17T13:13:43.706Z,1.10
2019-03-17T13:14:47.344Z,5.05
2019-03-17T13:15:51.518Z,2.47
2019-03-17T13:16:55.207Z,6.90
2019-03-17T13:18:00.279Z,4.42
2019-03-17T13:19:04.354Z,2.50
2019-03-17T13:20:13.658Z,2.27
2019-03-17T13:21:17.298Z,2.00
2019-03-17T13:22:21.034Z,2.45
2019-03-17T13:23:27.610Z,2.20
2019-03-17T13:24:31.313Z,4.20
2019-03-17T13:25:34.948Z,3.20
2019-03-17T13:26:38.577Z,2.35
2019-03-17T13:27:44.944Z,2.55
2019-03-17T13:28:48.580Z,3.12
2019-03-17T13:29:52.236Z,4.65
2019-03-17T13:30:56.222Z,3.92
2019-03-17T13:31:59.862Z,2.33
2019-03-17T13:33:03.527Z,1.22
2019-03-17T13:34:07.558Z,3.12
2019-03-17T13:35:12.130Z,1.37
2019-03-17T13:36:15.771Z,4.05
2019-03-17T13:37:20.188Z,1.55
2019-03-17T13:38:23.873Z,3.52
2019-03-17T13:39:27.501Z,2.47
2019-03-17T13:40:31.141Z,1.37
2019-03-17T13:41:35.139Z,3.15
2019-03-17T13:42:38.874Z,5.58
2019-03-17T13:43:42.528Z,2.67
2019-03-17T13:44:46.189Z,2.30
2019-03-17T13:45:49.823Z,2.90
2019-03-17T13:46:53.526Z,2.75
2019-03-17T13:47:57.162Z,2.77
2019-03-17T13:49:00.849Z,1.80
2019-03-17T13:50:07.205Z,1.30
2019-03-17T13:51:10.928Z,2.20
2019-03-17T13:52:14.564Z,2.37
2019-03-17T13:53:18.279Z,2.37
2019-03-17T13:54:21.946Z,2.08
2019-03-17T13:55:25.680Z,2.83
2019-03-17T13:56:29.403Z,1.70
2019-03-17T13:57:33.070Z,1.37
2019-03-17T13:58:36.796Z,1.85
2019-03-17T13:59:40.483Z,3.87
2019-03-17T14:00:44.134Z,2.45
2019-03-17T14:01:47.789Z,2.45